SUSO

Details ICAO SUSO (STY)
Name NUEVA HESPERIDES INTL
Region Uruguay
Timezone America/Montevideo (UTC-3.0)
Plans Departing 10
Arriving 8
Stats Elevation 187 ft / 57 m (AMSL)
Location -31.435375° -57.985449°
Runways 2
Magnetic Variation 11.160° W
Sunrise 2018-05-27 10:41:26 UTC / 2018-05-27 07:41:26 Local
Sunset 2018-05-27 20:59:41 UTC / 2018-05-27 17:59:41 Local
Advertisement - Login to hide

Runways

ID Width Length Bearing (true) Bearing (mag) Surface Threshold Offset Overrun Length
05 148 ft / 45 m 5,215 ft / 1,589 m 38.75° 49.91° Asphalt 0 ft / 0 m 0 ft / 0 m
13 164 ft / 50 m 2,457 ft / 749 m 116.35° 127.51° Grass 0 ft / 0 m 0 ft / 0 m
23 148 ft / 45 m 5,215 ft / 1,589 m 218.75° 229.91° Asphalt 0 ft / 0 m 0 ft / 0 m
31 164 ft / 50 m 2,457 ft / 749 m 296.35° 307.51° Grass 0 ft / 0 m 0 ft / 0 m

Map

Weather


0- 5 10 15 20 25 30 35+ Temperature / ° C

Clouds and Precipitation
Forecast for 2018-05-28 00:00 UTC. Updated an hour ago

Ground ~20,000 ft ~40,000 ft Winds

METAR

Not found

TAF

TAF SUSO 271730Z 2718/2818 04007KT CAVOK TX23/2718Z TN17/2810Z

Frequencies

Tower 118.80 MHz SALTO TWR
Tower 122.10 MHz SALTO TWR
Warning: Do not use this data for real-world aviation or navigation. No guarantee of current accuracy is given.